sensor_id;sensor_type;location;lat;lon;timestamp;pressure;altitude;pressure_sealevel;temperature;humidity
57462;BME280;43308;47.306;8.608;2024-03-23T00:53:39;94897.34;;;13.36;50.42
57462;BME280;43308;47.306;8.608;2024-03-23T00:56:05;94893.38;;;13.42;50.24
57462;BME280;43308;47.306;8.608;2024-03-23T00:58:31;94877.78;;;13.44;50.26
57462;BME280;43308;47.306;8.608;2024-03-23T01:00:57;94882.16;;;13.49;50.04
57462;BME280;43308;47.306;8.608;2024-03-23T01:03:22;94882.16;;;13.49;50.25
57462;BME280;43308;47.306;8.608;2024-03-23T01:05:48;94879.31;;;13.54;49.98
57462;BME280;43308;47.306;8.608;2024-03-23T01:08:14;94875.91;;;13.65;49.00
57462;BME280;43308;47.306;8.608;2024-03-23T01:10:40;94861.38;;;13.66;49.18
57462;BME280;43308;47.306;8.608;2024-03-23T01:13:06;94865.31;;;13.69;49.28
57462;BME280;43308;47.306;8.608;2024-03-23T01:15:32;94863.41;;;13.69;49.75
57462;BME280;43308;47.306;8.608;2024-03-23T01:17:58;94845.47;;;13.61;49.93
57462;BME280;43308;47.306;8.608;2024-03-23T01:20:24;94844.69;;;13.61;48.42
57462;BME280;43308;47.306;8.608;2024-03-23T01:22:50;94846.41;;;13.65;48.62
57462;BME280;43308;47.306;8.608;2024-03-23T01:25:16;94852.88;;;13.64;47.94
57462;BME280;43308;47.306;8.608;2024-03-23T01:27:42;94838.34;;;13.65;47.80
57462;BME280;43308;47.306;8.608;2024-03-23T01:30:08;94839.59;;;13.68;47.91
57462;BME280;43308;47.306;8.608;2024-03-23T01:32:34;94845.28;;;13.66;47.98
57462;BME280;43308;47.306;8.608;2024-03-23T01:35:00;94844.81;;;13.64;49.19
57462;BME280;43308;47.306;8.608;2024-03-23T01:37:27;94844.44;;;13.54;48.09
57462;BME280;43308;47.306;8.608;2024-03-23T01:39:53;94831.97;;;13.49;48.33
57462;BME280;43308;47.306;8.608;2024-03-23T01:42:20;94827.28;;;13.46;49.18
57462;BME280;43308;47.306;8.608;2024-03-23T01:44:46;94824.78;;;13.41;49.33
57462;BME280;43308;47.306;8.608;2024-03-23T01:47:12;94816.47;;;13.34;50.35
57462;BME280;43308;47.306;8.608;2024-03-23T01:49:38;94822.50;;;13.22;50.88
57462;BME280;43308;47.306;8.608;2024-03-23T01:52:05;94797.66;;;13.13;50.57
57462;BME280;43308;47.306;8.608;2024-03-23T01:54:31;94795.63;;;13.10;50.25
57462;BME280;43308;47.306;8.608;2024-03-23T01:56:57;94798.31;;;13.10;50.90
57462;BME280;43308;47.306;8.608;2024-03-23T01:59:24;94793.91;;;13.06;51.61
57462;BME280;43308;47.306;8.608;2024-03-23T02:01:50;94786.38;;;12.99;52.53
57462;BME280;43308;47.306;8.608;2024-03-23T02:04:19;94783.09;;;12.94;52.63
57462;BME280;43308;47.306;8.608;2024-03-23T02:06:45;94776.66;;;12.86;53.22
57462;BME280;43308;47.306;8.608;2024-03-23T02:09:11;94778.72;;;12.81;52.80
57462;BME280;43308;47.306;8.608;2024-03-23T02:11:37;94774.47;;;12.79;52.50
57462;BME280;43308;47.306;8.608;2024-03-23T02:14:03;94763.63;;;12.76;52.36
57462;BME280;43308;47.306;8.608;2024-03-23T02:16:29;94754.00;;;12.75;52.51
57462;BME280;43308;47.306;8.608;2024-03-23T02:18:55;94757.00;;;12.73;52.66
57462;BME280;43308;47.306;8.608;2024-03-23T02:21:21;94748.53;;;12.71;52.66
57462;BME280;43308;47.306;8.608;2024-03-23T02:23:46;94752.94;;;12.67;53.63
57462;BME280;43308;47.306;8.608;2024-03-23T02:26:14;94755.94;;;12.66;53.76
57462;BME280;43308;47.306;8.608;2024-03-23T02:28:40;94752.00;;;12.63;53.39
57462;BME280;43308;47.306;8.608;2024-03-23T02:31:06;94743.97;;;12.63;53.46
57462;BME280;43308;47.306;8.608;2024-03-23T02:33:32;94741.81;;;12.57;54.24
57462;BME280;43308;47.306;8.608;2024-03-23T02:35:59;94750.94;;;12.56;53.71
57462;BME280;43308;47.306;8.608;2024-03-23T02:38:25;94733.97;;;12.52;53.97
57462;BME280;43308;47.306;8.608;2024-03-23T02:40:53;94732.22;;;12.47;53.94
57462;BME280;43308;47.306;8.608;2024-03-23T02:43:19;94726.59;;;12.40;53.83
57462;BME280;43308;47.306;8.608;2024-03-23T02:45:45;94714.97;;;12.36;53.67
57462;BME280;43308;47.306;8.608;2024-03-23T02:48:11;94715.91;;;12.32;53.63
57462;BME280;43308;47.306;8.608;2024-03-23T02:50:37;94711.53;;;12.27;53.53
57462;BME280;43308;47.306;8.608;2024-03-23T02:53:03;94709.19;;;12.25;52.86
57462;BME280;43308;47.306;8.608;2024-03-23T02:55:29;94714.84;;;12.24;53.10
57462;BME280;43308;47.306;8.608;2024-03-23T02:57:56;94708.25;;;12.21;53.39
57462;BME280;43308;47.306;8.608;2024-03-23T03:00:22;94711.25;;;12.20;52.63
57462;BME280;43308;47.306;8.608;2024-03-23T03:02:48;94708.88;;;12.18;52.60
57462;BME280;43308;47.306;8.608;2024-03-23T03:05:13;94697.25;;;12.14;52.77
57462;BME280;43308;47.306;8.608;2024-03-23T03:07:39;94700.88;;;12.10;53.42
57462;BME280;43308;47.306;8.608;2024-03-23T03:10:06;94701.84;;;12.05;53.81
57462;BME280;43308;47.306;8.608;2024-03-23T03:12:34;94698.41;;;11.96;53.55
57462;BME280;43308;47.306;8.608;2024-03-23T03:15:00;94695.28;;;11.94;53.69
57462;BME280;43308;47.306;8.608;2024-03-23T03:17:26;94686.44;;;11.94;54.09
57462;BME280;43308;47.306;8.608;2024-03-23T03:19:52;94688.03;;;11.86;54.13
57462;BME280;43308;47.306;8.608;2024-03-23T03:22:22;94695.16;;;11.82;54.43
57462;BME280;43308;47.306;8.608;2024-03-23T03:24:48;94691.84;;;11.77;54.12
57462;BME280;43308;47.306;8.608;2024-03-23T03:27:14;94698.75;;;11.78;54.93
57462;BME280;43308;47.306;8.608;2024-03-23T03:29:40;94686.03;;;11.75;53.55
57462;BME280;43308;47.306;8.608;2024-03-23T03:32:06;94695.78;;;11.79;52.94
57462;BME280;43308;47.306;8.608;2024-03-23T03:34:32;94690.72;;;11.95;51.32
57462;BME280;43308;47.306;8.608;2024-03-23T03:36:58;94688.63;;;12.00;51.28
57462;BME280;43308;47.306;8.608;2024-03-23T03:39:25;94676.06;;;12.01;51.49
57462;BME280;43308;47.306;8.608;2024-03-23T03:41:51;94685.03;;;12.05;51.38
57462;BME280;43308;47.306;8.608;2024-03-23T03:44:17;94686.06;;;12.12;50.83
57462;BME280;43308;47.306;8.608;2024-03-23T03:46:43;94673.19;;;12.14;50.16
57462;BME280;43308;47.306;8.608;2024-03-23T03:49:09;94671.41;;;12.18;50.54
57462;BME280;43308;47.306;8.608;2024-03-23T03:51:35;94675.97;;;12.27;50.13
57462;BME280;43308;47.306;8.608;2024-03-23T03:54:01;94669.19;;;12.29;50.40
57462;BME280;43308;47.306;8.608;2024-03-23T03:56:26;94675.47;;;12.33;49.66
57462;BME280;43308;47.306;8.608;2024-03-23T03:58:53;94657.03;;;12.32;49.90
57462;BME280;43308;47.306;8.608;2024-03-23T04:01:20;94652.28;;;12.37;49.39
57462;BME280;43308;47.306;8.608;2024-03-23T04:03:46;94656.69;;;12.42;49.94
57462;BME280;43308;47.306;8.608;2024-03-23T04:06:12;94658.56;;;12.41;50.65
57462;BME280;43308;47.306;8.608;2024-03-23T04:08:44;94646.63;;;12.39;50.49
57462;BME280;43308;47.306;8.608;2024-03-23T04:11:10;94635.75;;;12.35;50.26
57462;BME280;43308;47.306;8.608;2024-03-23T04:13:36;94640.66;;;12.33;50.37
57462;BME280;43308;47.306;8.608;2024-03-23T04:16:02;94622.25;;;12.32;50.31
57462;BME280;43308;47.306;8.608;2024-03-23T04:18:28;94620.22;;;12.29;50.66
57462;BME280;43308;47.306;8.608;2024-03-23T04:20:54;94609.06;;;12.27;50.29
57462;BME280;43308;47.306;8.608;2024-03-23T04:23:20;94613.63;;;12.26;50.60
57462;BME280;43308;47.306;8.608;2024-03-23T04:25:46;94604.94;;;12.29;50.23
57462;BME280;43308;47.306;8.608;2024-03-23T04:28:13;94594.81;;;12.35;50.25
57462;BME280;43308;47.306;8.608;2024-03-23T04:30:39;94597.50;;;12.35;50.17
57462;BME280;43308;47.306;8.608;2024-03-23T04:33:04;94585.84;;;12.39;50.46
57462;BME280;43308;47.306;8.608;2024-03-23T04:35:30;94583.94;;;12.40;50.08
57462;BME280;43308;47.306;8.608;2024-03-23T04:37:56;94574.13;;;12.44;50.07
57462;BME280;43308;47.306;8.608;2024-03-23T04:40:25;94567.16;;;12.51;49.90
57462;BME280;43308;47.306;8.608;2024-03-23T04:42:51;94570.44;;;12.57;49.56
57462;BME280;43308;47.306;8.608;2024-03-23T04:45:17;94560.00;;;12.64;49.29
57462;BME280;43308;47.306;8.608;2024-03-23T04:47:43;94564.34;;;12.68;48.95
57462;BME280;43308;47.306;8.608;2024-03-23T04:50:09;94566.41;;;12.71;49.24
57462;BME280;43308;47.306;8.608;2024-03-23T04:52:39;94558.69;;;12.70;49.28
57462;BME280;43308;47.306;8.608;2024-03-23T04:55:05;94553.75;;;12.72;49.72
57462;BME280;43308;47.306;8.608;2024-03-23T04:57:31;94556.00;;;12.70;48.89
57462;BME280;43308;47.306;8.608;2024-03-23T04:59:58;94551.88;;;12.72;49.21
57462;BME280;43308;47.306;8.608;2024-03-23T05:02:23;94542.41;;;12.75;48.97
57462;BME280;43308;47.306;8.608;2024-03-23T05:04:51;94537.38;;;12.73;49.06
57462;BME280;43308;47.306;8.608;2024-03-23T05:07:17;94528.56;;;12.73;49.75
57462;BME280;43308;47.306;8.608;2024-03-23T05:09:42;94527.31;;;12.70;49.40
57462;BME280;43308;47.306;8.608;2024-03-23T05:12:08;94509.56;;;12.66;49.94
57462;BME280;43308;47.306;8.608;2024-03-23T05:14:34;94519.94;;;12.67;49.86
57462;BME280;43308;47.306;8.608;2024-03-23T05:17:00;94533.34;;;12.67;49.57
57462;BME280;43308;47.306;8.608;2024-03-23T05:19:27;94530.31;;;12.69;49.66
57462;BME280;43308;47.306;8.608;2024-03-23T05:21:52;94513.81;;;12.67;49.32
57462;BME280;43308;47.306;8.608;2024-03-23T05:24:18;94508.66;;;12.62;49.53
57462;BME280;43308;47.306;8.608;2024-03-23T05:26:45;94523.59;;;12.63;49.37
57462;BME280;43308;47.306;8.608;2024-03-23T05:29:11;94544.00;;;12.55;49.91
57462;BME280;43308;47.306;8.608;2024-03-23T05:31:39;94551.53;;;12.53;51.11
57462;BME280;43308;47.306;8.608;2024-03-23T05:34:08;94558.78;;;12.53;53.14
57462;BME280;43308;47.306;8.608;2024-03-23T05:36:34;94570.81;;;12.47;53.59
57462;BME280;43308;47.306;8.608;2024-03-23T05:39:02;94577.59;;;12.44;54.75
57462;BME280;43308;47.306;8.608;2024-03-23T05:41:27;94595.31;;;12.37;53.88
57462;BME280;43308;47.306;8.608;2024-03-23T05:43:53;94628.88;;;12.25;57.02
57462;BME280;43308;47.306;8.608;2024-03-23T05:46:19;94631.66;;;12.00;58.75
57462;BME280;43308;47.306;8.608;2024-03-23T05:48:45;94616.31;;;11.88;61.14
57462;BME280;43308;47.306;8.608;2024-03-23T05:51:11;94622.63;;;11.66;63.80
57462;BME280;43308;47.306;8.608;2024-03-23T05:53:38;94612.94;;;11.36;67.66
57462;BME280;43308;47.306;8.608;2024-03-23T05:56:04;94623.19;;;11.26;69.05
57462;BME280;43308;47.306;8.608;2024-03-23T05:58:30;94624.75;;;11.18;69.52
57462;BME280;43308;47.306;8.608;2024-03-23T06:01:00;94639.38;;;11.12;71.03
57462;BME280;43308;47.306;8.608;2024-03-23T06:03:30;94643.00;;;11.07;70.75
57462;BME280;43308;47.306;8.608;2024-03-23T06:05:56;94639.53;;;11.07;70.57
57462;BME280;43308;47.306;8.608;2024-03-23T06:08:22;94652.13;;;11.06;71.27
57462;BME280;43308;47.306;8.608;2024-03-23T06:10:48;94651.94;;;10.94;70.87
57462;BME280;43308;47.306;8.608;2024-03-23T06:13:15;94691.25;;;10.94;71.31
57462;BME280;43308;47.306;8.608;2024-03-23T06:15:42;94697.50;;;10.89;71.82
57462;BME280;43308;47.306;8.608;2024-03-23T06:18:08;94720.75;;;10.80;73.19
57462;BME280;43308;47.306;8.608;2024-03-23T06:20:34;94694.78;;;10.72;74.14
57462;BME280;43308;47.306;8.608;2024-03-23T06:23:01;94688.66;;;10.63;74.43
57462;BME280;43308;47.306;8.608;2024-03-23T06:25:27;94698.69;;;10.57;75.10
57462;BME280;43308;47.306;8.608;2024-03-23T06:27:53;94691.78;;;10.56;75.62
57462;BME280;43308;47.306;8.608;2024-03-23T06:30:19;94690.69;;;10.57;75.99
57462;BME280;43308;47.306;8.608;2024-03-23T06:32:45;94693.97;;;10.54;76.25
57462;BME280;43308;47.306;8.608;2024-03-23T06:35:11;94682.84;;;10.52;75.97
57462;BME280;43308;47.306;8.608;2024-03-23T06:37:37;94696.94;;;10.53;75.94
57462;BME280;43308;47.306;8.608;2024-03-23T06:40:05;94709.53;;;10.52;76.47
57462;BME280;43308;47.306;8.608;2024-03-23T06:42:35;94713.28;;;10.51;76.47
57462;BME280;43308;47.306;8.608;2024-03-23T06:45:02;94700.84;;;10.47;77.06
57462;BME280;43308;47.306;8.608;2024-03-23T06:47:30;94693.81;;;10.51;76.02
57462;BME280;43308;47.306;8.608;2024-03-23T06:49:56;94714.38;;;10.50;76.70
57462;BME280;43308;47.306;8.608;2024-03-23T06:52:22;94730.38;;;10.50;77.58
57462;BME280;43308;47.306;8.608;2024-03-23T06:54:48;94739.00;;;10.47;77.91
57462;BME280;43308;47.306;8.608;2024-03-23T06:57:14;94753.91;;;10.40;78.69
57462;BME280;43308;47.306;8.608;2024-03-23T06:59:40;94750.72;;;10.29;79.22
57462;BME280;43308;47.306;8.608;2024-03-23T07:02:06;94753.53;;;10.24;79.50
57462;BME280;43308;47.306;8.608;2024-03-23T07:04:35;94745.63;;;10.19;80.07
57462;BME280;43308;47.306;8.608;2024-03-23T07:07:01;94758.00;;;10.15;80.00
57462;BME280;43308;47.306;8.608;2024-03-23T07:09:28;94764.53;;;10.09;80.47
57462;BME280;43308;47.306;8.608;2024-03-23T07:11:59;94753.53;;;10.02;80.82
57462;BME280;43308;47.306;8.608;2024-03-23T07:14:25;94757.28;;;10.01;81.31
57462;BME280;43308;47.306;8.608;2024-03-23T07:16:51;94767.44;;;9.99;81.46
57462;BME280;43308;47.306;8.608;2024-03-23T07:19:17;94756.19;;;10.02;80.86
57462;BME280;43308;47.306;8.608;2024-03-23T07:21:44;94759.63;;;10.02;79.36
57462;BME280;43308;47.306;8.608;2024-03-23T07:24:10;94766.69;;;9.98;79.48
57462;BME280;43308;47.306;8.608;2024-03-23T07:26:36;94776.38;;;9.94;80.46
57462;BME280;43308;47.306;8.608;2024-03-23T07:29:04;94762.41;;;9.89;79.57
57462;BME280;43308;47.306;8.608;2024-03-23T07:31:30;94766.94;;;9.88;79.15
57462;BME280;43308;47.306;8.608;2024-03-23T07:33:56;94781.34;;;9.87;80.14
57462;BME280;43308;47.306;8.608;2024-03-23T07:36:21;94792.94;;;9.83;80.11
57462;BME280;43308;47.306;8.608;2024-03-23T07:38:47;94789.09;;;9.75;78.01
57462;BME280;43308;47.306;8.608;2024-03-23T07:41:18;94794.44;;;9.75;77.37
57462;BME280;43308;47.306;8.608;2024-03-23T07:43:47;94801.78;;;9.70;76.73
57462;BME280;43308;47.306;8.608;2024-03-23T07:46:14;94794.56;;;9.70;76.61
57462;BME280;43308;47.306;8.608;2024-03-23T07:48:40;94798.50;;;9.73;76.74
57462;BME280;43308;47.306;8.608;2024-03-23T07:51:11;94807.59;;;9.72;76.10
57462;BME280;43308;47.306;8.608;2024-03-23T07:53:37;94806.59;;;9.68;75.03
57462;BME280;43308;47.306;8.608;2024-03-23T07:56:07;94835.31;;;9.71;74.81
57462;BME280;43308;47.306;8.608;2024-03-23T07:58:34;94821.88;;;9.76;72.62
57462;BME280;43308;47.306;8.608;2024-03-23T08:01:05;94844.00;;;9.76;73.48
57462;BME280;43308;47.306;8.608;2024-03-23T08:03:31;94846.97;;;9.75;74.00
57462;BME280;43308;47.306;8.608;2024-03-23T08:05:57;94876.69;;;9.68;74.32
57462;BME280;43308;47.306;8.608;2024-03-23T08:08:23;94903.41;;;9.41;70.92
57462;BME280;43308;47.306;8.608;2024-03-23T08:10:52;94880.34;;;8.95;69.00
57462;BME280;43308;47.306;8.608;2024-03-23T08:13:19;94908.13;;;8.62;70.34
57462;BME280;43308;47.306;8.608;2024-03-23T08:15:45;94924.19;;;8.38;71.37
57462;BME280;43308;47.306;8.608;2024-03-23T08:18:12;94903.88;;;8.10;74.45
57462;BME280;43308;47.306;8.608;2024-03-23T08:20:39;94905.34;;;7.84;75.19
57462;BME280;43308;47.306;8.608;2024-03-23T08:23:06;94927.97;;;7.63;75.58
57462;BME280;43308;47.306;8.608;2024-03-23T08:25:32;94938.72;;;7.53;76.21
57462;BME280;43308;47.306;8.608;2024-03-23T08:27:58;94948.84;;;7.51;76.84
57462;BME280;43308;47.306;8.608;2024-03-23T08:30:24;94952.66;;;7.44;75.64
57462;BME280;43308;47.306;8.608;2024-03-23T08:32:50;94949.94;;;7.26;74.27
57462;BME280;43308;47.306;8.608;2024-03-23T08:35:17;94935.44;;;7.18;74.86
57462;BME280;43308;47.306;8.608;2024-03-23T08:37:43;94959.94;;;7.10;74.63
57462;BME280;43308;47.306;8.608;2024-03-23T08:40:09;94970.22;;;6.93;74.46
57462;BME280;43308;47.306;8.608;2024-03-23T08:42:35;94965.78;;;6.83;75.38
57462;BME280;43308;47.306;8.608;2024-03-23T08:45:02;94969.28;;;6.79;73.67
57462;BME280;43308;47.306;8.608;2024-03-23T08:47:28;94981.41;;;6.85;73.75
57462;BME280;43308;47.306;8.608;2024-03-23T08:49:54;95001.75;;;6.94;75.48
57462;BME280;43308;47.306;8.608;2024-03-23T08:52:20;94994.03;;;6.98;71.95
57462;BME280;43308;47.306;8.608;2024-03-23T08:54:48;94997.53;;;6.93;71.47
57462;BME280;43308;47.306;8.608;2024-03-23T08:57:14;95004.41;;;6.94;72.23
57462;BME280;43308;47.306;8.608;2024-03-23T08:59:40;95010.50;;;6.95;71.65
57462;BME280;43308;47.306;8.608;2024-03-23T09:02:06;95004.09;;;7.01;71.26
57462;BME280;43308;47.306;8.608;2024-03-23T09:04:32;94998.19;;;7.09;69.91
57462;BME280;43308;47.306;8.608;2024-03-23T09:06:58;95005.00;;;7.15;70.13
57462;BME280;43308;47.306;8.608;2024-03-23T09:09:25;95017.16;;;7.21;71.22
57462;BME280;43308;47.306;8.608;2024-03-23T09:11:51;95025.13;;;7.21;67.29
57462;BME280;43308;47.306;8.608;2024-03-23T09:14:17;95030.66;;;7.25;68.49
57462;BME280;43308;47.306;8.608;2024-03-23T09:16:43;95041.28;;;7.25;67.81
57462;BME280;43308;47.306;8.608;2024-03-23T09:19:09;95041.56;;;7.23;68.03
57462;BME280;43308;47.306;8.608;2024-03-23T09:21:35;95056.19;;;7.21;65.77
57462;BME280;43308;47.306;8.608;2024-03-23T09:24:01;95083.47;;;7.26;66.91
57462;BME280;43308;47.306;8.608;2024-03-23T09:26:26;95055.59;;;7.29;66.37
57462;BME280;43308;47.306;8.608;2024-03-23T09:28:52;95050.94;;;7.39;65.20
57462;BME280;43308;47.306;8.608;2024-03-23T09:31:18;95067.09;;;7.48;67.04
57462;BME280;43308;47.306;8.608;2024-03-23T09:33:45;95059.50;;;7.60;65.57
57462;BME280;43308;47.306;8.608;2024-03-23T09:36:11;95073.03;;;7.64;64.45
57462;BME280;43308;47.306;8.608;2024-03-23T09:38:37;95070.84;;;7.66;63.91
57462;BME280;43308;47.306;8.608;2024-03-23T09:41:07;95096.97;;;7.59;61.28
57462;BME280;43308;47.306;8.608;2024-03-23T09:43:34;95107.88;;;7.57;60.69
57462;BME280;43308;47.306;8.608;2024-03-23T09:46:04;95109.75;;;7.57;59.99
57462;BME280;43308;47.306;8.608;2024-03-23T09:48:31;95135.91;;;7.44;60.00
57462;BME280;43308;47.306;8.608;2024-03-23T09:50:57;95130.84;;;7.43;59.07
57462;BME280;43308;47.306;8.608;2024-03-23T09:53:23;95126.97;;;7.35;58.63
57462;BME280;43308;47.306;8.608;2024-03-23T09:55:49;95134.63;;;7.37;60.23
57462;BME280;43308;47.306;8.608;2024-03-23T09:58:18;95125.38;;;7.34;58.98
57462;BME280;43308;47.306;8.608;2024-03-23T10:00:45;95116.34;;;7.35;59.22
57462;BME280;43308;47.306;8.608;2024-03-23T10:03:11;95112.59;;;7.36;59.05
57462;BME280;43308;47.306;8.608;2024-03-23T10:05:37;95140.19;;;7.40;60.47
57462;BME280;43308;47.306;8.608;2024-03-23T10:10:42;95132.63;;;7.53;60.42
57462;BME280;43308;47.306;8.608;2024-03-23T10:13:08;95127.28;;;7.58;60.37
57462;BME280;43308;47.306;8.608;2024-03-23T10:15:35;95137.84;;;7.63;60.13
57462;BME280;43308;47.306;8.608;2024-03-23T10:18:17;95125.13;;;7.60;58.79
57462;BME280;43308;47.306;8.608;2024-03-23T10:20:52;95129.94;;;7.58;59.07
57462;BME280;43308;47.306;8.608;2024-03-23T10:23:18;95130.66;;;7.63;60.22
57462;BME280;43308;47.306;8.608;2024-03-23T10:25:44;95122.94;;;7.67;59.41
57462;BME280;43308;47.306;8.608;2024-03-23T10:28:11;95104.34;;;7.67;58.61
57462;BME280;43308;47.306;8.608;2024-03-23T10:30:37;95104.75;;;7.74;59.83
57462;BME280;43308;47.306;8.608;2024-03-23T10:33:07;95108.69;;;7.81;60.73
57462;BME280;43308;47.306;8.608;2024-03-23T10:35:34;95110.28;;;7.82;57.77
57462;BME280;43308;47.306;8.608;2024-03-23T10:38:03;95116.09;;;7.84;59.32
57462;BME280;43308;47.306;8.608;2024-03-23T10:40:30;95129.59;;;7.88;59.72
57462;BME280;43308;47.306;8.608;2024-03-23T10:42:58;95122.13;;;7.90;59.18
57462;BME280;43308;47.306;8.608;2024-03-23T10:45:24;95114.91;;;7.95;56.78
57462;BME280;43308;47.306;8.608;2024-03-23T10:47:51;95108.34;;;8.12;57.48
57462;BME280;43308;47.306;8.608;2024-03-23T10:50:17;95110.53;;;8.28;56.58
57462;BME280;43308;47.306;8.608;2024-03-23T10:52:46;95117.94;;;8.31;53.96
57462;BME280;43308;47.306;8.608;2024-03-23T10:55:17;95108.81;;;8.37;53.84
57462;BME280;43308;47.306;8.608;2024-03-23T10:57:49;95127.72;;;8.36;54.74
57462;BME280;43308;47.306;8.608;2024-03-23T11:00:17;95105.66;;;8.35;54.28
57462;BME280;43308;47.306;8.608;2024-03-23T11:02:43;95109.81;;;8.41;54.15
57462;BME280;43308;47.306;8.608;2024-03-23T11:07:51;95122.63;;;8.58;53.29
57462;BME280;43308;47.306;8.608;2024-03-23T11:10:30;95120.13;;;8.67;53.69
57462;BME280;43308;47.306;8.608;2024-03-23T11:13:23;95117.41;;;8.72;52.93
57462;BME280;43308;47.306;8.608;2024-03-23T11:15:49;95115.81;;;8.71;52.69
57462;BME280;43308;47.306;8.608;2024-03-23T11:18:20;95113.41;;;8.69;51.65
57462;BME280;43308;47.306;8.608;2024-03-23T11:20:46;95123.06;;;8.65;52.66
57462;BME280;43308;47.306;8.608;2024-03-23T11:23:28;95118.16;;;8.53;51.94
57462;BME280;43308;47.306;8.608;2024-03-23T11:25:54;95124.13;;;8.45;52.16
57462;BME280;43308;47.306;8.608;2024-03-23T11:28:20;95127.38;;;8.42;52.76
57462;BME280;43308;47.306;8.608;2024-03-23T11:30:47;95114.88;;;8.43;52.94
57462;BME280;43308;47.306;8.608;2024-03-23T11:33:13;95119.84;;;8.49;54.05
57462;BME280;43308;47.306;8.608;2024-03-23T11:35:40;95112.63;;;8.50;52.23
57462;BME280;43308;47.306;8.608;2024-03-23T11:38:07;95114.44;;;8.54;52.53
57462;BME280;43308;47.306;8.608;2024-03-23T11:40:33;95121.13;;;8.52;50.50
57462;BME280;43308;47.306;8.608;2024-03-23T11:43:01;95113.16;;;8.52;50.68
57462;BME280;43308;47.306;8.608;2024-03-23T11:45:27;95127.75;;;8.54;51.27
57462;BME280;43308;47.306;8.608;2024-03-23T11:48:04;95123.00;;;8.51;49.82
57462;BME280;43308;47.306;8.608;2024-03-23T11:50:31;95126.66;;;8.56;50.72
57462;BME280;43308;47.306;8.608;2024-03-23T11:53:17;95117.75;;;8.65;50.24
57462;BME280;43308;47.306;8.608;2024-03-23T11:55:56;95123.47;;;8.72;50.44
57462;BME280;43308;47.306;8.608;2024-03-23T11:58:23;95133.28;;;8.77;50.63
57462;BME280;43308;47.306;8.608;2024-03-23T12:03:18;95124.78;;;8.93;50.41
57462;BME280;43308;47.306;8.608;2024-03-23T12:05:48;95128.59;;;9.06;48.81
57462;BME280;43308;47.306;8.608;2024-03-23T12:08:20;95115.13;;;9.16;48.82
57462;BME280;43308;47.306;8.608;2024-03-23T12:10:51;95099.47;;;9.28;48.42
57462;BME280;43308;47.306;8.608;2024-03-23T12:13:21;95107.88;;;9.35;49.04
57462;BME280;43308;47.306;8.608;2024-03-23T12:15:51;95101.84;;;9.43;48.18
57462;BME280;43308;47.306;8.608;2024-03-23T12:18:23;95101.25;;;9.46;46.86
57462;BME280;43308;47.306;8.608;2024-03-23T12:20:50;95099.22;;;9.57;47.80
57462;BME280;43308;47.306;8.608;2024-03-23T12:23:16;95089.44;;;9.66;48.93
57462;BME280;43308;47.306;8.608;2024-03-23T12:25:45;95080.47;;;9.76;51.59
57462;BME280;43308;47.306;8.608;2024-03-23T12:28:14;95068.81;;;9.85;51.59
57462;BME280;43308;47.306;8.608;2024-03-23T12:30:40;95075.63;;;10.05;51.37
57462;BME280;43308;47.306;8.608;2024-03-23T12:33:06;95068.13;;;10.21;51.68
57462;BME280;43308;47.306;8.608;2024-03-23T12:35:32;95041.69;;;10.46;50.70
57462;BME280;43308;47.306;8.608;2024-03-23T12:37:59;95050.41;;;10.74;44.85
57462;BME280;43308;47.306;8.608;2024-03-23T12:40:25;95050.88;;;10.98;46.60
57462;BME280;43308;47.306;8.608;2024-03-23T12:42:52;95034.16;;;11.15;48.01
57462;BME280;43308;47.306;8.608;2024-03-23T12:45:18;95060.75;;;11.20;47.06
57462;BME280;43308;47.306;8.608;2024-03-23T12:47:44;95059.03;;;10.93;49.60
57462;BME280;43308;47.306;8.608;2024-03-23T12:50:10;95065.88;;;10.50;51.47
57462;BME280;43308;47.306;8.608;2024-03-23T12:52:37;95049.66;;;10.10;53.02
57462;BME280;43308;47.306;8.608;2024-03-23T12:55:04;95053.81;;;9.89;53.11
57462;BME280;43308;47.306;8.608;2024-03-23T12:57:32;95065.56;;;9.88;53.83
57462;BME280;43308;47.306;8.608;2024-03-23T12:59:59;95056.16;;;10.18;52.49
57462;BME280;43308;47.306;8.608;2024-03-23T13:02:25;95050.28;;;10.43;51.57
57462;BME280;43308;47.306;8.608;2024-03-23T13:04:54;95050.56;;;10.55;51.28
57462;BME280;43308;47.306;8.608;2024-03-23T13:07:21;95050.16;;;10.84;50.38
57462;BME280;43308;47.306;8.608;2024-03-23T13:09:51;95049.41;;;11.14;49.36
57462;BME280;43308;47.306;8.608;2024-03-23T13:12:19;95046.25;;;11.12;48.81
57462;BME280;43308;47.306;8.608;2024-03-23T13:14:46;95057.38;;;11.06;47.53
57462;BME280;43308;47.306;8.608;2024-03-23T13:17:12;95046.00;;;11.00;47.56
57462;BME280;43308;47.306;8.608;2024-03-23T13:19:38;95044.81;;;10.84;47.03
57462;BME280;43308;47.306;8.608;2024-03-23T13:22:05;95042.91;;;10.62;47.97
57462;BME280;43308;47.306;8.608;2024-03-23T13:24:31;95032.91;;;10.46;47.27
57462;BME280;43308;47.306;8.608;2024-03-23T13:26:57;95030.84;;;10.43;46.92
57462;BME280;43308;47.306;8.608;2024-03-23T13:29:24;95008.47;;;10.52;47.30
57462;BME280;43308;47.306;8.608;2024-03-23T13:31:51;95012.38;;;11.22;46.82
57462;BME280;43308;47.306;8.608;2024-03-23T13:34:18;94998.38;;;12.12;43.90
57462;BME280;43308;47.306;8.608;2024-03-23T13:36:45;95003.41;;;12.91;42.86
57462;BME280;43308;47.306;8.608;2024-03-23T13:39:12;95002.50;;;13.59;39.30
57462;BME280;43308;47.306;8.608;2024-03-23T13:44:05;94995.94;;;14.35;36.91
57462;BME280;43308;47.306;8.608;2024-03-23T13:46:32;95001.34;;;14.89;36.19
57462;BME280;43308;47.306;8.608;2024-03-23T13:48:58;94985.31;;;15.25;34.05
57462;BME280;43308;47.306;8.608;2024-03-23T13:51:25;94984.63;;;15.16;29.43
57462;BME280;43308;47.306;8.608;2024-03-23T13:53:53;94975.25;;;14.89;30.28
57462;BME280;43308;47.306;8.608;2024-03-23T13:56:20;94985.53;;;14.55;31.77
57462;BME280;43308;47.306;8.608;2024-03-23T13:58:47;94988.81;;;14.31;31.26
57462;BME280;43308;47.306;8.608;2024-03-23T14:01:16;94987.81;;;13.94;31.63
57462;BME280;43308;47.306;8.608;2024-03-23T14:03:43;94986.19;;;13.64;30.85
57462;BME280;43308;47.306;8.608;2024-03-23T14:06:10;94985.47;;;13.08;31.21